sensor_id;sensor_type;location;lat;lon;timestamp;P1;durP1;ratioP1;P2;durP2;ratioP2
25758;SDS011;13604;52.496;13.456;2022-09-09T00:17:38;21.42;;;16.33;;
25758;SDS011;13604;52.496;13.456;2022-09-09T00:22:47;19.48;;;14.20;;
25758;SDS011;13604;52.496;13.456;2022-09-09T00:25:23;18.10;;;13.18;;
25758;SDS011;13604;52.496;13.456;2022-09-09T00:27:54;22.05;;;14.20;;
25758;SDS011;13604;52.496;13.456;2022-09-09T00:30:25;16.25;;;13.13;;
25758;SDS011;13604;52.496;13.456;2022-09-09T00:33:00;18.45;;;13.77;;
25758;SDS011;13604;52.496;13.456;2022-09-09T00:35:34;17.05;;;12.85;;
25758;SDS011;13604;52.496;13.456;2022-09-09T00:38:15;17.65;;;13.98;;
25758;SDS011;13604;52.496;13.456;2022-09-09T00:40:46;15.52;;;12.85;;
25758;SDS011;13604;52.496;13.456;2022-09-09T00:43:31;16.83;;;12.75;;
25758;SDS011;13604;52.496;13.456;2022-09-09T00:54:53;16.38;;;12.52;;
25758;SDS011;13604;52.496;13.456;2022-09-09T00:57:28;17.20;;;12.57;;
25758;SDS011;13604;52.496;13.456;2022-09-09T01:00:02;16.77;;;12.50;;
25758;SDS011;13604;52.496;13.456;2022-09-09T01:05:27;16.42;;;12.50;;
25758;SDS011;13604;52.496;13.456;2022-09-09T01:08:01;15.77;;;12.13;;
25758;SDS011;13604;52.496;13.456;2022-09-09T01:13:16;16.25;;;11.75;;
25758;SDS011;13604;52.496;13.456;2022-09-09T01:15:47;15.73;;;12.70;;
25758;SDS011;13604;52.496;13.456;2022-09-09T01:18:16;22.52;;;13.32;;
25758;SDS011;13604;52.496;13.456;2022-09-09T01:23:20;16.52;;;13.25;;
25758;SDS011;13604;52.496;13.456;2022-09-09T01:26:15;16.70;;;12.80;;
25758;SDS011;13604;52.496;13.456;2022-09-09T01:28:49;17.73;;;13.48;;
25758;SDS011;13604;52.496;13.456;2022-09-09T01:31:23;18.92;;;13.18;;
25758;SDS011;13604;52.496;13.456;2022-09-09T01:33:53;19.73;;;13.23;;
25758;SDS011;13604;52.496;13.456;2022-09-09T01:38:59;17.30;;;13.45;;
25758;SDS011;13604;52.496;13.456;2022-09-09T01:41:24;20.63;;;14.65;;
25758;SDS011;13604;52.496;13.456;2022-09-09T01:43:50;20.15;;;13.73;;
25758;SDS011;13604;52.496;13.456;2022-09-09T01:46:16;19.88;;;14.07;;
25758;SDS011;13604;52.496;13.456;2022-09-09T01:48:46;18.23;;;13.18;;
25758;SDS011;13604;52.496;13.456;2022-09-09T01:51:11;18.33;;;14.05;;
25758;SDS011;13604;52.496;13.456;2022-09-09T01:53:37;16.42;;;12.90;;
25758;SDS011;13604;52.496;13.456;2022-09-09T01:56:14;17.23;;;13.13;;
25758;SDS011;13604;52.496;13.456;2022-09-09T02:02:23;20.52;;;15.55;;
25758;SDS011;13604;52.496;13.456;2022-09-09T02:05:48;20.73;;;14.98;;
25758;SDS011;13604;52.496;13.456;2022-09-09T02:08:05;19.95;;;13.85;;
25758;SDS011;13604;52.496;13.456;2022-09-09T02:11:05;18.73;;;13.48;;
25758;SDS011;13604;52.496;13.456;2022-09-09T02:13:39;18.00;;;13.63;;
25758;SDS011;13604;52.496;13.456;2022-09-09T02:18:54;19.02;;;13.57;;
25758;SDS011;13604;52.496;13.456;2022-09-09T02:21:26;16.63;;;12.80;;
25758;SDS011;13604;52.496;13.456;2022-09-09T02:23:54;17.70;;;13.05;;
25758;SDS011;13604;52.496;13.456;2022-09-09T02:26:22;19.30;;;14.25;;
25758;SDS011;13604;52.496;13.456;2022-09-09T02:28:49;16.77;;;12.90;;
25758;SDS011;13604;52.496;13.456;2022-09-09T02:31:19;18.98;;;13.68;;
25758;SDS011;13604;52.496;13.456;2022-09-09T02:33:48;21.15;;;13.50;;
25758;SDS011;13604;52.496;13.456;2022-09-09T02:36:26;18.17;;;13.20;;
25758;SDS011;13604;52.496;13.456;2022-09-09T02:38:56;18.73;;;13.80;;
25758;SDS011;13604;52.496;13.456;2022-09-09T02:41:26;22.60;;;14.02;;
25758;SDS011;13604;52.496;13.456;2022-09-09T02:44:01;20.50;;;14.38;;
25758;SDS011;13604;52.496;13.456;2022-09-09T02:49:51;21.98;;;14.15;;
25758;SDS011;13604;52.496;13.456;2022-09-09T02:52:38;20.35;;;13.43;;
25758;SDS011;13604;52.496;13.456;2022-09-09T02:55:16;24.10;;;14.07;;
25758;SDS011;13604;52.496;13.456;2022-09-09T02:57:48;20.83;;;12.90;;
25758;SDS011;13604;52.496;13.456;2022-09-09T03:00:15;21.10;;;14.70;;
25758;SDS011;13604;52.496;13.456;2022-09-09T03:02:40;18.25;;;13.00;;
25758;SDS011;13604;52.496;13.456;2022-09-09T03:05:07;17.40;;;12.50;;
25758;SDS011;13604;52.496;13.456;2022-09-09T03:07:32;17.45;;;13.20;;
25758;SDS011;13604;52.496;13.456;2022-09-09T03:09:58;19.73;;;13.00;;
25758;SDS011;13604;52.496;13.456;2022-09-09T03:12:23;17.52;;;12.48;;
25758;SDS011;13604;52.496;13.456;2022-09-09T03:14:49;20.30;;;13.48;;
25758;SDS011;13604;52.496;13.456;2022-09-09T03:17:14;17.70;;;12.93;;
25758;SDS011;13604;52.496;13.456;2022-09-09T03:19:40;21.25;;;13.32;;
25758;SDS011;13604;52.496;13.456;2022-09-09T03:22:05;18.90;;;12.60;;
25758;SDS011;13604;52.496;13.456;2022-09-09T03:24:31;18.45;;;12.63;;
25758;SDS011;13604;52.496;13.456;2022-09-09T03:26:56;19.63;;;12.40;;
25758;SDS011;13604;52.496;13.456;2022-09-09T03:29:22;18.83;;;12.40;;
25758;SDS011;13604;52.496;13.456;2022-09-09T03:31:47;18.85;;;12.07;;
25758;SDS011;13604;52.496;13.456;2022-09-09T03:34:13;18.50;;;12.63;;
25758;SDS011;13604;52.496;13.456;2022-09-09T03:36:38;18.90;;;12.45;;
25758;SDS011;13604;52.496;13.456;2022-09-09T03:39:04;18.63;;;11.40;;
25758;SDS011;13604;52.496;13.456;2022-09-09T03:41:29;17.45;;;12.60;;
25758;SDS011;13604;52.496;13.456;2022-09-09T03:43:55;15.43;;;11.48;;
25758;SDS011;13604;52.496;13.456;2022-09-09T03:46:22;17.70;;;12.70;;
25758;SDS011;13604;52.496;13.456;2022-09-09T03:48:48;18.17;;;11.52;;
25758;SDS011;13604;52.496;13.456;2022-09-09T03:51:15;16.52;;;10.85;;
25758;SDS011;13604;52.496;13.456;2022-09-09T03:53:41;16.58;;;11.95;;
25758;SDS011;13604;52.496;13.456;2022-09-09T03:56:06;14.90;;;11.75;;
25758;SDS011;13604;52.496;13.456;2022-09-09T03:58:32;17.73;;;11.68;;
25758;SDS011;13604;52.496;13.456;2022-09-09T04:01:00;18.13;;;11.13;;
25758;SDS011;13604;52.496;13.456;2022-09-09T04:03:28;17.13;;;11.80;;
25758;SDS011;13604;52.496;13.456;2022-09-09T04:05:54;16.42;;;11.20;;
25758;SDS011;13604;52.496;13.456;2022-09-09T04:08:21;16.38;;;11.65;;
25758;SDS011;13604;52.496;13.456;2022-09-09T04:10:47;16.65;;;10.50;;
25758;SDS011;13604;52.496;13.456;2022-09-09T04:13:15;13.80;;;10.52;;
25758;SDS011;13604;52.496;13.456;2022-09-09T04:15:42;12.50;;;10.25;;
25758;SDS011;13604;52.496;13.456;2022-09-09T04:18:08;14.07;;;9.45;;
25758;SDS011;13604;52.496;13.456;2022-09-09T04:20:33;15.02;;;11.15;;
25758;SDS011;13604;52.496;13.456;2022-09-09T04:22:59;18.55;;;11.25;;
25758;SDS011;13604;52.496;13.456;2022-09-09T04:25:24;13.77;;;9.60;;
25758;SDS011;13604;52.496;13.456;2022-09-09T04:27:56;15.18;;;11.02;;
25758;SDS011;13604;52.496;13.456;2022-09-09T04:30:23;18.90;;;10.15;;
25758;SDS011;13604;52.496;13.456;2022-09-09T04:32:49;14.90;;;9.40;;
25758;SDS011;13604;52.496;13.456;2022-09-09T04:35:14;16.90;;;10.32;;
25758;SDS011;13604;52.496;13.456;2022-09-09T04:37:40;16.55;;;11.13;;
25758;SDS011;13604;52.496;13.456;2022-09-09T04:40:05;13.75;;;9.98;;
25758;SDS011;13604;52.496;13.456;2022-09-09T04:42:35;18.65;;;10.95;;
25758;SDS011;13604;52.496;13.456;2022-09-09T04:45:00;15.52;;;9.95;;
25758;SDS011;13604;52.496;13.456;2022-09-09T04:47:26;13.85;;;10.10;;
25758;SDS011;13604;52.496;13.456;2022-09-09T04:49:52;15.00;;;10.13;;
25758;SDS011;13604;52.496;13.456;2022-09-09T04:52:19;17.25;;;10.50;;
25758;SDS011;13604;52.496;13.456;2022-09-09T04:54:44;21.70;;;10.93;;
25758;SDS011;13604;52.496;13.456;2022-09-09T04:57:10;17.70;;;10.95;;
25758;SDS011;13604;52.496;13.456;2022-09-09T04:59:36;23.08;;;10.63;;
25758;SDS011;13604;52.496;13.456;2022-09-09T05:02:02;22.38;;;11.02;;
25758;SDS011;13604;52.496;13.456;2022-09-09T05:04:28;22.13;;;11.65;;
25758;SDS011;13604;52.496;13.456;2022-09-09T05:06:53;22.58;;;10.77;;
25758;SDS011;13604;52.496;13.456;2022-09-09T05:09:19;21.83;;;11.07;;
25758;SDS011;13604;52.496;13.456;2022-09-09T05:11:44;22.35;;;10.43;;
25758;SDS011;13604;52.496;13.456;2022-09-09T05:14:09;30.98;;;11.95;;
25758;SDS011;13604;52.496;13.456;2022-09-09T05:16:37;30.73;;;12.63;;
25758;SDS011;13604;52.496;13.456;2022-09-09T05:19:02;37.17;;;12.57;;
25758;SDS011;13604;52.496;13.456;2022-09-09T05:21:28;30.63;;;12.63;;
25758;SDS011;13604;52.496;13.456;2022-09-09T05:23:54;27.55;;;12.85;;
25758;SDS011;13604;52.496;13.456;2022-09-09T05:26:20;29.45;;;11.30;;
25758;SDS011;13604;52.496;13.456;2022-09-09T05:28:47;23.52;;;11.77;;
25758;SDS011;13604;52.496;13.456;2022-09-09T05:31:13;19.60;;;10.60;;
25758;SDS011;13604;52.496;13.456;2022-09-09T05:33:40;28.90;;;13.10;;
25758;SDS011;13604;52.496;13.456;2022-09-09T05:36:09;21.27;;;10.70;;
25758;SDS011;13604;52.496;13.456;2022-09-09T05:38:37;21.58;;;11.57;;
25758;SDS011;13604;52.496;13.456;2022-09-09T05:41:03;22.25;;;10.13;;
25758;SDS011;13604;52.496;13.456;2022-09-09T05:43:28;16.58;;;10.10;;
25758;SDS011;13604;52.496;13.456;2022-09-09T05:45:58;18.67;;;9.95;;
25758;SDS011;13604;52.496;13.456;2022-09-09T05:48:33;17.08;;;8.93;;
25758;SDS011;13604;52.496;13.456;2022-09-09T05:50:59;13.82;;;8.95;;
25758;SDS011;13604;52.496;13.456;2022-09-09T05:53:26;14.18;;;8.85;;
25758;SDS011;13604;52.496;13.456;2022-09-09T05:55:59;14.60;;;8.75;;
25758;SDS011;13604;52.496;13.456;2022-09-09T05:58:26;11.60;;;8.68;;
25758;SDS011;13604;52.496;13.456;2022-09-09T06:00:52;11.30;;;8.68;;
25758;SDS011;13604;52.496;13.456;2022-09-09T06:03:19;14.18;;;8.90;;
25758;SDS011;13604;52.496;13.456;2022-09-09T06:05:56;10.73;;;7.13;;
25758;SDS011;13604;52.496;13.456;2022-09-09T06:08:22;9.88;;;6.70;;
25758;SDS011;13604;52.496;13.456;2022-09-09T06:10:47;11.90;;;6.38;;
25758;SDS011;13604;52.496;13.456;2022-09-09T06:13:12;15.98;;;5.93;;
25758;SDS011;13604;52.496;13.456;2022-09-09T06:15:38;10.88;;;6.03;;
25758;SDS011;13604;52.496;13.456;2022-09-09T06:18:03;12.02;;;5.80;;
25758;SDS011;13604;52.496;13.456;2022-09-09T06:20:28;8.85;;;5.53;;
25758;SDS011;13604;52.496;13.456;2022-09-09T06:22:55;9.00;;;5.32;;
25758;SDS011;13604;52.496;13.456;2022-09-09T06:25:20;6.60;;;5.38;;
25758;SDS011;13604;52.496;13.456;2022-09-09T06:27:48;15.90;;;5.90;;
25758;SDS011;13604;52.496;13.456;2022-09-09T06:30:14;8.75;;;4.75;;
25758;SDS011;13604;52.496;13.456;2022-09-09T06:32:39;7.32;;;4.38;;
25758;SDS011;13604;52.496;13.456;2022-09-09T06:35:05;11.02;;;5.50;;
25758;SDS011;13604;52.496;13.456;2022-09-09T06:37:31;10.85;;;5.40;;
25758;SDS011;13604;52.496;13.456;2022-09-09T06:39:56;8.48;;;4.68;;
25758;SDS011;13604;52.496;13.456;2022-09-09T06:42:21;7.53;;;4.60;;
25758;SDS011;13604;52.496;13.456;2022-09-09T06:44:47;5.78;;;3.80;;
25758;SDS011;13604;52.496;13.456;2022-09-09T06:47:12;7.13;;;3.00;;
25758;SDS011;13604;52.496;13.456;2022-09-09T06:49:37;8.32;;;4.13;;
25758;SDS011;13604;52.496;13.456;2022-09-09T06:52:02;4.45;;;3.30;;
25758;SDS011;13604;52.496;13.456;2022-09-09T06:54:28;5.63;;;3.58;;
25758;SDS011;13604;52.496;13.456;2022-09-09T06:56:53;7.20;;;3.25;;
25758;SDS011;13604;52.496;13.456;2022-09-09T06:59:18;12.13;;;3.70;;
25758;SDS011;13604;52.496;13.456;2022-09-09T07:01:44;4.60;;;2.90;;
25758;SDS011;13604;52.496;13.456;2022-09-09T07:04:09;6.22;;;2.92;;
25758;SDS011;13604;52.496;13.456;2022-09-09T07:06:40;5.63;;;2.78;;
25758;SDS011;13604;52.496;13.456;2022-09-09T07:09:10;5.10;;;2.95;;
25758;SDS011;13604;52.496;13.456;2022-09-09T07:11:37;3.03;;;2.15;;
25758;SDS011;13604;52.496;13.456;2022-09-09T07:14:06;3.97;;;2.00;;
25758;SDS011;13604;52.496;13.456;2022-09-09T07:16:31;7.85;;;2.55;;
25758;SDS011;13604;52.496;13.456;2022-09-09T07:18:58;3.92;;;2.10;;
25758;SDS011;13604;52.496;13.456;2022-09-09T07:21:24;5.80;;;2.28;;
25758;SDS011;13604;52.496;13.456;2022-09-09T07:23:51;5.38;;;2.63;;
25758;SDS011;13604;52.496;13.456;2022-09-09T07:26:18;7.20;;;2.00;;
25758;SDS011;13604;52.496;13.456;2022-09-09T07:28:45;4.93;;;2.22;;
25758;SDS011;13604;52.496;13.456;2022-09-09T07:31:15;4.93;;;1.98;;
25758;SDS011;13604;52.496;13.456;2022-09-09T07:33:42;3.35;;;2.00;;
25758;SDS011;13604;52.496;13.456;2022-09-09T07:36:10;6.13;;;1.85;;
25758;SDS011;13604;52.496;13.456;2022-09-09T07:38:45;5.82;;;2.00;;
25758;SDS011;13604;52.496;13.456;2022-09-09T07:41:12;5.53;;;2.40;;
25758;SDS011;13604;52.496;13.456;2022-09-09T07:43:41;5.63;;;2.40;;
25758;SDS011;13604;52.496;13.456;2022-09-09T07:46:08;6.13;;;2.55;;
25758;SDS011;13604;52.496;13.456;2022-09-09T07:48:34;4.07;;;2.30;;
25758;SDS011;13604;52.496;13.456;2022-09-09T07:51:10;8.48;;;2.72;;
25758;SDS011;13604;52.496;13.456;2022-09-09T07:53:37;6.45;;;2.40;;
25758;SDS011;13604;52.496;13.456;2022-09-09T07:56:07;2.83;;;1.80;;
25758;SDS011;13604;52.496;13.456;2022-09-09T07:58:35;7.72;;;2.30;;
25758;SDS011;13604;52.496;13.456;2022-09-09T08:01:15;5.03;;;1.77;;
25758;SDS011;13604;52.496;13.456;2022-09-09T08:03:43;7.43;;;2.00;;
25758;SDS011;13604;52.496;13.456;2022-09-09T08:06:10;4.30;;;1.88;;
25758;SDS011;13604;52.496;13.456;2022-09-09T08:08:37;8.02;;;2.00;;
25758;SDS011;13604;52.496;13.456;2022-09-09T08:11:13;4.00;;;1.98;;
25758;SDS011;13604;52.496;13.456;2022-09-09T08:13:40;8.40;;;2.05;;
25758;SDS011;13604;52.496;13.456;2022-09-09T08:16:09;5.30;;;1.85;;
25758;SDS011;13604;52.496;13.456;2022-09-09T08:18:42;3.83;;;1.80;;
25758;SDS011;13604;52.496;13.456;2022-09-09T08:21:11;6.32;;;1.90;;
25758;SDS011;13604;52.496;13.456;2022-09-09T08:23:39;7.07;;;2.08;;
25758;SDS011;13604;52.496;13.456;2022-09-09T08:28:39;2.30;;;1.48;;
25758;SDS011;13604;52.496;13.456;2022-09-09T08:31:09;3.58;;;1.90;;
25758;SDS011;13604;52.496;13.456;2022-09-09T08:33:39;3.10;;;1.95;;
25758;SDS011;13604;52.496;13.456;2022-09-09T08:36:06;5.65;;;1.98;;
25758;SDS011;13604;52.496;13.456;2022-09-09T08:38:34;2.92;;;1.35;;
25758;SDS011;13604;52.496;13.456;2022-09-09T08:41:04;6.88;;;2.28;;
25758;SDS011;13604;52.496;13.456;2022-09-09T08:43:41;4.95;;;1.88;;
25758;SDS011;13604;52.496;13.456;2022-09-09T08:46:11;7.28;;;2.15;;
25758;SDS011;13604;52.496;13.456;2022-09-09T08:48:56;3.95;;;1.58;;
25758;SDS011;13604;52.496;13.456;2022-09-09T08:51:29;4.78;;;1.90;;
25758;SDS011;13604;52.496;13.456;2022-09-09T08:53:57;4.93;;;1.85;;
25758;SDS011;13604;52.496;13.456;2022-09-09T08:56:27;4.78;;;1.73;;
25758;SDS011;13604;52.496;13.456;2022-09-09T08:58:56;4.38;;;1.95;;
25758;SDS011;13604;52.496;13.456;2022-09-09T09:07:10;3.85;;;1.75;;
25758;SDS011;13604;52.496;13.456;2022-09-09T09:09:50;7.50;;;2.30;;
25758;SDS011;13604;52.496;13.456;2022-09-09T09:12:27;5.80;;;2.00;;
25758;SDS011;13604;52.496;13.456;2022-09-09T09:14:57;3.17;;;1.50;;
25758;SDS011;13604;52.496;13.456;2022-09-09T09:17:25;6.97;;;1.85;;
25758;SDS011;13604;52.496;13.456;2022-09-09T09:19:53;8.35;;;2.05;;
25758;SDS011;13604;52.496;13.456;2022-09-09T09:22:23;6.78;;;1.65;;
25758;SDS011;13604;52.496;13.456;2022-09-09T09:25:01;5.13;;;2.15;;
25758;SDS011;13604;52.496;13.456;2022-09-09T09:27:39;5.15;;;1.35;;
25758;SDS011;13604;52.496;13.456;2022-09-09T09:30:16;7.00;;;1.70;;
25758;SDS011;13604;52.496;13.456;2022-09-09T09:32:48;6.57;;;2.00;;
25758;SDS011;13604;52.496;13.456;2022-09-09T09:35:15;4.53;;;1.95;;
25758;SDS011;13604;52.496;13.456;2022-09-09T09:37:41;4.40;;;1.80;;
25758;SDS011;13604;52.496;13.456;2022-09-09T09:40:09;6.20;;;1.55;;
25758;SDS011;13604;52.496;13.456;2022-09-09T09:43:00;4.22;;;1.58;;
25758;SDS011;13604;52.496;13.456;2022-09-09T09:45:32;2.90;;;1.63;;
25758;SDS011;13604;52.496;13.456;2022-09-09T09:48:08;3.25;;;1.58;;
25758;SDS011;13604;52.496;13.456;2022-09-09T09:50:35;4.70;;;1.50;;
25758;SDS011;13604;52.496;13.456;2022-09-09T09:53:05;4.47;;;1.63;;
25758;SDS011;13604;52.496;13.456;2022-09-09T09:55:46;6.18;;;1.55;;
25758;SDS011;13604;52.496;13.456;2022-09-09T09:58:18;6.72;;;1.83;;
25758;SDS011;13604;52.496;13.456;2022-09-09T10:00:47;7.47;;;1.70;;
25758;SDS011;13604;52.496;13.456;2022-09-09T10:05:51;6.28;;;1.95;;
25758;SDS011;13604;52.496;13.456;2022-09-09T10:08:17;3.28;;;1.35;;
25758;SDS011;13604;52.496;13.456;2022-09-09T10:10:57;2.88;;;1.20;;
25758;SDS011;13604;52.496;13.456;2022-09-09T10:16:23;6.10;;;1.90;;
25758;SDS011;13604;52.496;13.456;2022-09-09T10:19:00;4.90;;;1.60;;
25758;SDS011;13604;52.496;13.456;2022-09-09T10:21:32;3.92;;;1.40;;
25758;SDS011;13604;52.496;13.456;2022-09-09T10:29:53;4.95;;;1.63;;
25758;SDS011;13604;52.496;13.456;2022-09-09T10:35:43;4.43;;;1.58;;
25758;SDS011;13604;52.496;13.456;2022-09-09T10:43:00;3.08;;;1.42;;
25758;SDS011;13604;52.496;13.456;2022-09-09T10:46:15;3.85;;;1.52;;
25758;SDS011;13604;52.496;13.456;2022-09-09T10:51:37;4.35;;;1.70;;
25758;SDS011;13604;52.496;13.456;2022-09-09T10:57:26;2.42;;;1.45;;
25758;SDS011;13604;52.496;13.456;2022-09-09T10:59:57;3.65;;;1.40;;
25758;SDS011;13604;52.496;13.456;2022-09-09T11:02:29;4.65;;;1.33;;
25758;SDS011;13604;52.496;13.456;2022-09-09T11:04:58;3.53;;;1.30;;
25758;SDS011;13604;52.496;13.456;2022-09-09T11:07:55;3.15;;;1.50;;
25758;SDS011;13604;52.496;13.456;2022-09-09T11:10:27;5.28;;;1.70;;
25758;SDS011;13604;52.496;13.456;2022-09-09T11:13:04;4.03;;;0.90;;
25758;SDS011;13604;52.496;13.456;2022-09-09T11:15:54;5.75;;;2.20;;
25758;SDS011;13604;52.496;13.456;2022-09-09T11:18:26;5.20;;;1.23;;
25758;SDS011;13604;52.496;13.456;2022-09-09T11:20:57;2.70;;;1.17;;
25758;SDS011;13604;52.496;13.456;2022-09-09T11:23:27;8.38;;;1.33;;
25758;SDS011;13604;52.496;13.456;2022-09-09T11:26:03;6.10;;;1.35;;
25758;SDS011;13604;52.496;13.456;2022-09-09T11:28:46;2.78;;;1.10;;
25758;SDS011;13604;52.496;13.456;2022-09-09T11:31:36;2.33;;;1.40;;
25758;SDS011;13604;52.496;13.456;2022-09-09T11:40:26;4.03;;;1.10;;
25758;SDS011;13604;52.496;13.456;2022-09-09T11:42:47;3.28;;;1.02;;
25758;SDS011;13604;52.496;13.456;2022-09-09T11:45:22;7.28;;;1.40;;
25758;SDS011;13604;52.496;13.456;2022-09-09T11:47:57;5.95;;;1.30;;
25758;SDS011;13604;52.496;13.456;2022-09-09T11:50:27;2.92;;;0.80;;
25758;SDS011;13604;52.496;13.456;2022-09-09T11:55:38;5.15;;;1.33;;
25758;SDS011;13604;52.496;13.456;2022-09-09T11:58:05;5.35;;;1.35;;
25758;SDS011;13604;52.496;13.456;2022-09-09T12:00:46;5.40;;;1.23;;
25758;SDS011;13604;52.496;13.456;2022-09-09T12:08:56;9.07;;;1.80;;
25758;SDS011;13604;52.496;13.456;2022-09-09T12:11:35;6.35;;;1.80;;
25758;SDS011;13604;52.496;13.456;2022-09-09T12:14:02;6.38;;;1.33;;
25758;SDS011;13604;52.496;13.456;2022-09-09T12:16:31;3.78;;;1.23;;
25758;SDS011;13604;52.496;13.456;2022-09-09T12:19:03;4.30;;;1.10;;
25758;SDS011;13604;52.496;13.456;2022-09-09T12:21:34;3.63;;;0.88;;
25758;SDS011;13604;52.496;13.456;2022-09-09T12:24:07;4.50;;;1.10;;
25758;SDS011;13604;52.496;13.456;2022-09-09T12:26:37;3.22;;;1.30;;
25758;SDS011;13604;52.496;13.456;2022-09-09T12:32:10;2.00;;;1.15;;
25758;SDS011;13604;52.496;13.456;2022-09-09T12:34:44;3.08;;;1.20;;
25758;SDS011;13604;52.496;13.456;2022-09-09T12:40:06;2.50;;;1.15;;
25758;SDS011;13604;52.496;13.456;2022-09-09T12:42:45;4.40;;;1.13;;
25758;SDS011;13604;52.496;13.456;2022-09-09T12:45:18;2.63;;;1.15;;
25758;SDS011;13604;52.496;13.456;2022-09-09T12:47:50;2.88;;;1.08;;
25758;SDS011;13604;52.496;13.456;2022-09-09T12:52:46;4.43;;;1.38;;
25758;SDS011;13604;52.496;13.456;2022-09-09T12:55:19;1.15;;;0.80;;
25758;SDS011;13604;52.496;13.456;2022-09-09T12:57:46;2.88;;;1.20;;
25758;SDS011;13604;52.496;13.456;2022-09-09T13:00:16;2.47;;;1.08;;
25758;SDS011;13604;52.496;13.456;2022-09-09T13:02:56;3.55;;;1.10;;
25758;SDS011;13604;52.496;13.456;2022-09-09T13:05:25;4.30;;;1.00;;
25758;SDS011;13604;52.496;13.456;2022-09-09T13:08:03;1.58;;;0.90;;
25758;SDS011;13604;52.496;13.456;2022-09-09T13:10:57;6.65;;;1.00;;
25758;SDS011;13604;52.496;13.456;2022-09-09T13:13:34;1.15;;;0.70;;
25758;SDS011;13604;52.496;13.456;2022-09-09T13:16:01;6.32;;;1.58;;
25758;SDS011;13604;52.496;13.456;2022-09-09T13:18:29;2.67;;;1.00;;
25758;SDS011;13604;52.496;13.456;2022-09-09T13:20:58;6.32;;;2.03;;
25758;SDS011;13604;52.496;13.456;2022-09-09T13:23:26;3.97;;;1.42;;
25758;SDS011;13604;52.496;13.456;2022-09-09T13:25:58;0.88;;;0.65;;
25758;SDS011;13604;52.496;13.456;2022-09-09T13:28:26;5.32;;;0.82;;
25758;SDS011;13604;52.496;13.456;2022-09-09T13:30:58;2.05;;;0.90;;
25758;SDS011;13604;52.496;13.456;2022-09-09T13:33:35;3.90;;;1.23;;
25758;SDS011;13604;52.496;13.456;2022-09-09T13:36:08;2.20;;;1.15;;
25758;SDS011;13604;52.496;13.456;2022-09-09T13:41:03;3.20;;;0.88;;
25758;SDS011;13604;52.496;13.456;2022-09-09T13:43:38;2.47;;;0.90;;
25758;SDS011;13604;52.496;13.456;2022-09-09T13:51:43;2.42;;;1.20;;
25758;SDS011;13604;52.496;13.456;2022-09-09T13:54:12;3.85;;;1.15;;
25758;SDS011;13604;52.496;13.456;2022-09-09T13:56:39;2.13;;;1.02;;
25758;SDS011;13604;52.496;13.456;2022-09-09T13:59:06;2.65;;;1.08;;
25758;SDS011;13604;52.496;13.456;2022-09-09T14:01:36;2.58;;;1.02;;
25758;SDS011;13604;52.496;13.456;2022-09-09T14:04:02;3.92;;;1.23;;
25758;SDS011;13604;52.496;13.456;2022-09-09T14:06:27;5.40;;;1.10;;
25758;SDS011;13604;52.496;13.456;2022-09-09T14:08:54;3.33;;;1.25;;
25758;SDS011;13604;52.496;13.456;2022-09-09T14:11:19;2.20;;;0.93;;
25758;SDS011;13604;52.496;13.456;2022-09-09T14:13:46;2.85;;;1.25;;
25758;SDS011;13604;52.496;13.456;2022-09-09T14:16:11;1.20;;;0.85;;
25758;SDS011;13604;52.496;13.456;2022-09-09T14:18:37;2.42;;;1.10;;
25758;SDS011;13604;52.496;13.456;2022-09-09T14:21:03;3.45;;;1.15;;
25758;SDS011;13604;52.496;13.456;2022-09-09T14:23:29;4.63;;;1.33;;
25758;SDS011;13604;52.496;13.456;2022-09-09T14:25:54;4.78;;;1.08;;
25758;SDS011;13604;52.496;13.456;2022-09-09T14:28:20;7.53;;;1.67;;
25758;SDS011;13604;52.496;13.456;2022-09-09T14:30:45;1.58;;;1.23;;
25758;SDS011;13604;52.496;13.456;2022-09-09T14:33:12;4.53;;;1.40;;
25758;SDS011;13604;52.496;13.456;2022-09-09T14:35:39;2.63;;;1.10;;
25758;SDS011;13604;52.496;13.456;2022-09-09T14:38:06;3.65;;;1.40;;
25758;SDS011;13604;52.496;13.456;2022-09-09T14:40:31;5.15;;;1.88;;
25758;SDS011;13604;52.496;13.456;2022-09-09T14:42:59;3.80;;;1.67;;
25758;SDS011;13604;52.496;13.456;2022-09-09T14:45:24;3.35;;;1.58;;
25758;SDS011;13604;52.496;13.456;2022-09-09T14:47:51;2.38;;;1.02;;
25758;SDS011;13604;52.496;13.456;2022-09-09T14:50:17;5.13;;;1.20;;
25758;SDS011;13604;52.496;13.456;2022-09-09T14:52:43;2.35;;;1.20;;
25758;SDS011;13604;52.496;13.456;2022-09-09T14:55:08;5.75;;;1.10;;
25758;SDS011;13604;52.496;13.456;2022-09-09T14:57:34;2.75;;;1.20;;
25758;SDS011;13604;52.496;13.456;2022-09-09T15:00:00;3.70;;;1.00;;
25758;SDS011;13604;52.496;13.456;2022-09-09T15:02:27;5.22;;;1.20;;
25758;SDS011;13604;52.496;13.456;2022-09-09T15:04:52;3.10;;;1.20;;
25758;SDS011;13604;52.496;13.456;2022-09-09T15:07:22;6.60;;;1.50;;
25758;SDS011;13604;52.496;13.456;2022-09-09T15:09:47;6.18;;;1.48;;
25758;SDS011;13604;52.496;13.456;2022-09-09T15:12:12;3.35;;;1.20;;
25758;SDS011;13604;52.496;13.456;2022-09-09T15:14:39;3.47;;;1.10;;
25758;SDS011;13604;52.496;13.456;2022-09-09T15:17:04;3.22;;;1.20;;
25758;SDS011;13604;52.496;13.456;2022-09-09T15:19:29;3.58;;;1.30;;
25758;SDS011;13604;52.496;13.456;2022-09-09T15:21:55;3.80;;;1.20;;
25758;SDS011;13604;52.496;13.456;2022-09-09T15:24:20;4.65;;;1.10;;
25758;SDS011;13604;52.496;13.456;2022-09-09T15:26:46;2.92;;;1.00;;
25758;SDS011;13604;52.496;13.456;2022-09-09T15:29:11;4.65;;;0.85;;
25758;SDS011;13604;52.496;13.456;2022-09-09T15:31:37;5.00;;;1.30;;
25758;SDS011;13604;52.496;13.456;2022-09-09T15:34:03;3.72;;;1.10;;
25758;SDS011;13604;52.496;13.456;2022-09-09T15:36:30;2.67;;;1.23;;
25758;SDS011;13604;52.496;13.456;2022-09-09T15:39:01;5.50;;;1.25;;
25758;SDS011;13604;52.496;13.456;2022-09-09T15:41:27;3.00;;;1.30;;
25758;SDS011;13604;52.496;13.456;2022-09-09T15:43:54;2.15;;;0.93;;
25758;SDS011;13604;52.496;13.456;2022-09-09T15:46:28;4.15;;;1.13;;
25758;SDS011;13604;52.496;13.456;2022-09-09T15:48:54;2.05;;;1.20;;
25758;SDS011;13604;52.496;13.456;2022-09-09T15:51:21;6.43;;;1.40;;
25758;SDS011;13604;52.496;13.456;2022-09-09T15:53:48;2.95;;;1.13;;
25758;SDS011;13604;52.496;13.456;2022-09-09T15:56:13;3.42;;;1.20;;
25758;SDS011;13604;52.496;13.456;2022-09-09T15:58:39;3.13;;;1.50;;
25758;SDS011;13604;52.496;13.456;2022-09-09T16:01:05;5.95;;;1.77;;
25758;SDS011;13604;52.496;13.456;2022-09-09T16:03:34;2.90;;;1.30;;
25758;SDS011;13604;52.496;13.456;2022-09-09T16:06:00;4.60;;;1.35;;
25758;SDS011;13604;52.496;13.456;2022-09-09T16:08:36;6.15;;;1.80;;
25758;SDS011;13604;52.496;13.456;2022-09-09T16:11:13;7.00;;;1.58;;
25758;SDS011;13604;52.496;13.456;2022-09-09T16:13:41;3.65;;;1.40;;
25758;SDS011;13604;52.496;13.456;2022-09-09T16:16:09;5.57;;;1.10;;
25758;SDS011;13604;52.496;13.456;2022-09-09T16:18:37;11.68;;;1.33;;
25758;SDS011;13604;52.496;13.456;2022-09-09T16:21:08;5.15;;;1.30;;
25758;SDS011;13604;52.496;13.456;2022-09-09T16:23:39;4.18;;;1.48;;
25758;SDS011;13604;52.496;13.456;2022-09-09T16:26:04;3.00;;;1.08;;
25758;SDS011;13604;52.496;13.456;2022-09-09T16:28:30;2.55;;;1.02;;
25758;SDS011;13604;52.496;13.456;2022-09-09T16:30:55;1.67;;;1.17;;
25758;SDS011;13604;52.496;13.456;2022-09-09T16:33:20;4.78;;;1.23;;